Clear, AK (99704)

11:16 PM AKST on March 03, 2015 (GMT -0900)
AKDOT Parks Highway @ Nenana Hills MP 325.4 | Change Station
CLOSE
Current Station
Personal Weather Station
Location: Clear, AK
Elevation: 1420 ft
Nearby Weather Stations

Elev 1420 ft 64.71 °N, 148.63 °W | Updated 55 minutes ago

Overcast
Overcast
24 °F
Feels Like 24 °F
N
3
Wind Variable Wind from South
Gusts 6.0 mph

Today
High -- | Low -- °F
--% Chance of Precip.
Yesterday
High -- | Low -- °F
Precip. -- in
7:56 AM 6:18 PM
Waxing Gibbous, 98% visible
Pressure 29.95 in
Visibility 10.0 miles
Clouds Overcast 6500 ft
Windchill 24 °F
Dew Point 22 °F
Humidity 89%
Rainfall 0.00 in
Snow Depth Not available.
UV 0 out of 12
Pollen Not available.
Air Quality Not available.
Flu Activity Not available.
METAR PANN 040753Z AUTO 00000KT 10SM OVC065 M06/M08 A2991 RMK AO2 SLP140 T10561078 TSNO

More Conditions Fewer Conditions

Pressure 29.95 in
Visibility 10.0 miles
Clouds Overcast 6500 ft
Windchill 24 °F
Dew Point 22 °F
Humidity 89%
Rainfall 0.00 in
Snow Depth Not available.
UV 0 out of 12
Pollen Not available.
Air Quality Not available.
Flu Activity Not available.
METAR PANN 040753Z AUTO 00000KT 10SM OVC065 M06/M08 A2991 RMK AO2 SLP140 T10561078 TSNO

More Conditions Fewer Conditions

10-Day Weather Forecast

Almanac

Astronomy

Mar. 03, 2015 Rise Set
Actual Time
Civil Twilight
Nautical Twilight
Astronomical Twilight
Moon
Length of Visible Light
Length of Day
Tomorrow will be .
, % of the Moon is Illuminated

Today's Extremes

State Highs State Lows

Community

WunderPhotos

Upload Photos

1,802,416 photos uploaded!

WunderBlogs® & News

Nearby

Air Quality

  Air Quality AQ Index Pollutant
Not available.

Snow Depth

Station Depth Elevation

Earthquake Activity

City Distance Mag. Time & Date
Minimum magnitude displayed is 2.5.

Coastal Water Temperatures

Place Temperature

Nearby Weather Stations